sensor_id;sensor_type;location;lat;lon;timestamp;temperature;humidity
44843;DHT22;31884;52.538;13.820;2022-10-16T00:00:15;14.30;99.90
44843;DHT22;31884;52.538;13.820;2022-10-16T00:02:41;14.30;99.90
44843;DHT22;31884;52.538;13.820;2022-10-16T00:05:06;14.30;99.90
44843;DHT22;31884;52.538;13.820;2022-10-16T00:07:32;14.30;99.90
44843;DHT22;31884;52.538;13.820;2022-10-16T00:09:57;14.30;99.90
44843;DHT22;31884;52.538;13.820;2022-10-16T00:12:23;14.40;99.90
44843;DHT22;31884;52.538;13.820;2022-10-16T00:14:48;14.40;99.90
44843;DHT22;31884;52.538;13.820;2022-10-16T00:17:14;14.40;99.90
44843;DHT22;31884;52.538;13.820;2022-10-16T00:19:39;14.50;99.90
44843;DHT22;31884;52.538;13.820;2022-10-16T00:22:05;14.40;99.90
44843;DHT22;31884;52.538;13.820;2022-10-16T00:24:30;14.50;99.90
44843;DHT22;31884;52.538;13.820;2022-10-16T00:26:55;14.50;99.90
44843;DHT22;31884;52.538;13.820;2022-10-16T00:29:21;14.50;99.90
44843;DHT22;31884;52.538;13.820;2022-10-16T00:31:46;14.50;99.90
44843;DHT22;31884;52.538;13.820;2022-10-16T00:34:12;14.50;99.90
44843;DHT22;31884;52.538;13.820;2022-10-16T00:36:37;14.60;99.90
44843;DHT22;31884;52.538;13.820;2022-10-16T00:39:03;14.60;99.90
44843;DHT22;31884;52.538;13.820;2022-10-16T00:41:29;14.60;99.90
44843;DHT22;31884;52.538;13.820;2022-10-16T00:43:57;14.60;99.90
44843;DHT22;31884;52.538;13.820;2022-10-16T00:46:35;14.60;99.90
44843;DHT22;31884;52.538;13.820;2022-10-16T00:49:05;14.60;99.90
44843;DHT22;31884;52.538;13.820;2022-10-16T00:51:34;14.60;99.90
44843;DHT22;31884;52.538;13.820;2022-10-16T00:54:02;14.60;99.90
44843;DHT22;31884;52.538;13.820;2022-10-16T00:56:29;14.60;99.90
44843;DHT22;31884;52.538;13.820;2022-10-16T00:58:54;14.60;99.90
44843;DHT22;31884;52.538;13.820;2022-10-16T01:01:20;14.70;99.90
44843;DHT22;31884;52.538;13.820;2022-10-16T01:03:46;14.70;99.90
44843;DHT22;31884;52.538;13.820;2022-10-16T01:06:32;14.70;99.90
44843;DHT22;31884;52.538;13.820;2022-10-16T01:09:23;14.70;99.90
44843;DHT22;31884;52.538;13.820;2022-10-16T01:12:01;14.80;99.90
44843;DHT22;31884;52.538;13.820;2022-10-16T01:17:12;14.80;99.90
44843;DHT22;31884;52.538;13.820;2022-10-16T01:20:01;14.80;99.90
44843;DHT22;31884;52.538;13.820;2022-10-16T01:22:37;14.80;99.90
44843;DHT22;31884;52.538;13.820;2022-10-16T01:25:07;14.80;99.90
44843;DHT22;31884;52.538;13.820;2022-10-16T01:27:36;14.80;99.90
44843;DHT22;31884;52.538;13.820;2022-10-16T01:30:10;14.80;99.90
44843;DHT22;31884;52.538;13.820;2022-10-16T01:32:50;14.80;99.90
44843;DHT22;31884;52.538;13.820;2022-10-16T01:37:59;14.80;99.90
44843;DHT22;31884;52.538;13.820;2022-10-16T01:40:27;14.80;99.90
44843;DHT22;31884;52.538;13.820;2022-10-16T01:43:04;14.70;99.90
44843;DHT22;31884;52.538;13.820;2022-10-16T01:45:31;14.70;99.90
44843;DHT22;31884;52.538;13.820;2022-10-16T01:47:59;14.60;99.90
44843;DHT22;31884;52.538;13.820;2022-10-16T01:50:26;14.60;99.90
44843;DHT22;31884;52.538;13.820;2022-10-16T01:52:53;14.60;99.90
44843;DHT22;31884;52.538;13.820;2022-10-16T01:55:30;14.60;99.90
44843;DHT22;31884;52.538;13.820;2022-10-16T01:57:59;14.60;99.90
44843;DHT22;31884;52.538;13.820;2022-10-16T02:00:26;14.60;99.90
44843;DHT22;31884;52.538;13.820;2022-10-16T02:02:53;14.50;99.90
44843;DHT22;31884;52.538;13.820;2022-10-16T02:05:46;14.50;99.90
44843;DHT22;31884;52.538;13.820;2022-10-16T02:08:12;14.50;99.90
44843;DHT22;31884;52.538;13.820;2022-10-16T02:10:38;14.50;99.90
44843;DHT22;31884;52.538;13.820;2022-10-16T02:13:16;14.50;99.90
44843;DHT22;31884;52.538;13.820;2022-10-16T02:15:42;14.50;99.90
44843;DHT22;31884;52.538;13.820;2022-10-16T02:18:09;14.50;99.90
44843;DHT22;31884;52.538;13.820;2022-10-16T02:26:57;14.50;99.90
44843;DHT22;31884;52.538;13.820;2022-10-16T02:29:26;14.50;99.90
44843;DHT22;31884;52.538;13.820;2022-10-16T02:32:01;14.50;99.90
44843;DHT22;31884;52.538;13.820;2022-10-16T02:34:30;14.50;99.90
44843;DHT22;31884;52.538;13.820;2022-10-16T02:36:58;14.60;99.90
44843;DHT22;31884;52.538;13.820;2022-10-16T02:39:25;14.60;99.90
44843;DHT22;31884;52.538;13.820;2022-10-16T02:41:51;14.60;99.90
44843;DHT22;31884;52.538;13.820;2022-10-16T02:44:17;14.60;99.90
44843;DHT22;31884;52.538;13.820;2022-10-16T02:46:42;14.60;99.90
44843;DHT22;31884;52.538;13.820;2022-10-16T02:49:08;14.60;99.90
44843;DHT22;31884;52.538;13.820;2022-10-16T02:51:33;14.60;99.90
44843;DHT22;31884;52.538;13.820;2022-10-16T02:53:58;14.60;99.90
44843;DHT22;31884;52.538;13.820;2022-10-16T02:56:24;14.60;99.90
44843;DHT22;31884;52.538;13.820;2022-10-16T02:58:49;14.60;99.90
44843;DHT22;31884;52.538;13.820;2022-10-16T03:01:15;14.60;99.90
44843;DHT22;31884;52.538;13.820;2022-10-16T03:03:42;14.50;99.90
44843;DHT22;31884;52.538;13.820;2022-10-16T03:06:07;14.50;99.90
44843;DHT22;31884;52.538;13.820;2022-10-16T03:08:33;14.40;99.90
44843;DHT22;31884;52.538;13.820;2022-10-16T03:10:59;14.40;99.90
44843;DHT22;31884;52.538;13.820;2022-10-16T03:13:24;14.30;99.90
44843;DHT22;31884;52.538;13.820;2022-10-16T03:15:50;14.30;99.90
44843;DHT22;31884;52.538;13.820;2022-10-16T03:18:15;14.30;99.90
44843;DHT22;31884;52.538;13.820;2022-10-16T03:20:42;14.30;99.90
44843;DHT22;31884;52.538;13.820;2022-10-16T03:23:08;14.30;99.90
44843;DHT22;31884;52.538;13.820;2022-10-16T03:25:34;14.30;99.90
44843;DHT22;31884;52.538;13.820;2022-10-16T03:27:59;14.30;99.90
44843;DHT22;31884;52.538;13.820;2022-10-16T03:30:25;14.30;99.90
44843;DHT22;31884;52.538;13.820;2022-10-16T03:32:50;14.30;99.90
44843;DHT22;31884;52.538;13.820;2022-10-16T03:35:19;14.30;99.90
44843;DHT22;31884;52.538;13.820;2022-10-16T03:37:45;14.30;99.90
44843;DHT22;31884;52.538;13.820;2022-10-16T03:40:11;14.30;99.90
44843;DHT22;31884;52.538;13.820;2022-10-16T03:42:36;14.20;99.90
44843;DHT22;31884;52.538;13.820;2022-10-16T03:45:02;14.20;99.90
44843;DHT22;31884;52.538;13.820;2022-10-16T03:47:27;14.20;99.90
44843;DHT22;31884;52.538;13.820;2022-10-16T03:49:53;14.20;99.90
44843;DHT22;31884;52.538;13.820;2022-10-16T03:52:18;14.20;99.90
44843;DHT22;31884;52.538;13.820;2022-10-16T03:54:44;14.10;99.90
44843;DHT22;31884;52.538;13.820;2022-10-16T03:57:09;14.10;99.90
44843;DHT22;31884;52.538;13.820;2022-10-16T03:59:35;14.10;99.90
44843;DHT22;31884;52.538;13.820;2022-10-16T04:02:00;14.10;99.90
44843;DHT22;31884;52.538;13.820;2022-10-16T04:04:26;14.10;99.90
44843;DHT22;31884;52.538;13.820;2022-10-16T04:06:51;14.10;99.90
44843;DHT22;31884;52.538;13.820;2022-10-16T04:09:17;14.10;99.90
44843;DHT22;31884;52.538;13.820;2022-10-16T04:11:42;14.10;99.90
44843;DHT22;31884;52.538;13.820;2022-10-16T04:14:08;14.00;99.90
44843;DHT22;31884;52.538;13.820;2022-10-16T04:16:33;14.00;99.90
44843;DHT22;31884;52.538;13.820;2022-10-16T04:18:59;14.10;99.90
44843;DHT22;31884;52.538;13.820;2022-10-16T04:21:24;14.10;99.90
44843;DHT22;31884;52.538;13.820;2022-10-16T04:23:50;14.10;99.90
44843;DHT22;31884;52.538;13.820;2022-10-16T04:26:15;14.10;99.90
44843;DHT22;31884;52.538;13.820;2022-10-16T04:28:41;14.10;99.90
44843;DHT22;31884;52.538;13.820;2022-10-16T04:31:06;14.10;99.90
44843;DHT22;31884;52.538;13.820;2022-10-16T04:33:33;14.10;99.90
44843;DHT22;31884;52.538;13.820;2022-10-16T04:35:59;14.10;99.90
44843;DHT22;31884;52.538;13.820;2022-10-16T04:38:25;14.10;99.90
44843;DHT22;31884;52.538;13.820;2022-10-16T04:40:51;14.10;99.90
44843;DHT22;31884;52.538;13.820;2022-10-16T04:43:17;14.10;99.90
44843;DHT22;31884;52.538;13.820;2022-10-16T04:45:43;14.10;99.90
44843;DHT22;31884;52.538;13.820;2022-10-16T04:48:08;14.00;99.90
44843;DHT22;31884;52.538;13.820;2022-10-16T04:50:34;14.00;99.90
44843;DHT22;31884;52.538;13.820;2022-10-16T04:52:59;14.00;99.90
44843;DHT22;31884;52.538;13.820;2022-10-16T04:55:25;14.00;99.90
44843;DHT22;31884;52.538;13.820;2022-10-16T04:57:50;14.00;99.90
44843;DHT22;31884;52.538;13.820;2022-10-16T05:00:16;13.90;99.90
44843;DHT22;31884;52.538;13.820;2022-10-16T05:02:41;13.90;99.90
44843;DHT22;31884;52.538;13.820;2022-10-16T05:05:07;13.90;99.90
44843;DHT22;31884;52.538;13.820;2022-10-16T05:07:33;13.80;99.90
44843;DHT22;31884;52.538;13.820;2022-10-16T05:09:58;13.80;99.90
44843;DHT22;31884;52.538;13.820;2022-10-16T05:12:23;13.80;99.90
44843;DHT22;31884;52.538;13.820;2022-10-16T05:14:49;13.70;99.90
44843;DHT22;31884;52.538;13.820;2022-10-16T05:17:14;13.70;99.90
44843;DHT22;31884;52.538;13.820;2022-10-16T05:19:40;13.60;99.90
44843;DHT22;31884;52.538;13.820;2022-10-16T05:22:05;13.60;99.90
44843;DHT22;31884;52.538;13.820;2022-10-16T05:24:31;13.60;99.90
44843;DHT22;31884;52.538;13.820;2022-10-16T05:26:56;13.50;99.90
44843;DHT22;31884;52.538;13.820;2022-10-16T05:29:22;13.50;99.90
44843;DHT22;31884;52.538;13.820;2022-10-16T05:31:51;13.40;99.90
44843;DHT22;31884;52.538;13.820;2022-10-16T05:34:17;13.40;99.90
44843;DHT22;31884;52.538;13.820;2022-10-16T05:36:42;13.40;99.90
44843;DHT22;31884;52.538;13.820;2022-10-16T05:39:10;13.40;99.90
44843;DHT22;31884;52.538;13.820;2022-10-16T05:41:36;13.30;99.90
44843;DHT22;31884;52.538;13.820;2022-10-16T05:44:04;13.30;99.90
44843;DHT22;31884;52.538;13.820;2022-10-16T05:46:30;13.30;99.90
44843;DHT22;31884;52.538;13.820;2022-10-16T05:48:55;13.30;99.90
44843;DHT22;31884;52.538;13.820;2022-10-16T05:51:21;13.30;99.90
44843;DHT22;31884;52.538;13.820;2022-10-16T05:53:46;13.30;99.90
44843;DHT22;31884;52.538;13.820;2022-10-16T05:56:12;13.30;99.90
44843;DHT22;31884;52.538;13.820;2022-10-16T05:58:38;13.40;99.90
44843;DHT22;31884;52.538;13.820;2022-10-16T06:01:25;13.50;99.90
44843;DHT22;31884;52.538;13.820;2022-10-16T06:03:52;13.50;99.90
44843;DHT22;31884;52.538;13.820;2022-10-16T06:06:20;13.60;99.90
44843;DHT22;31884;52.538;13.820;2022-10-16T06:08:47;13.60;99.90
44843;DHT22;31884;52.538;13.820;2022-10-16T06:11:16;13.60;99.90
44843;DHT22;31884;52.538;13.820;2022-10-16T06:13:42;13.70;99.90
44843;DHT22;31884;52.538;13.820;2022-10-16T06:16:09;13.70;99.90
44843;DHT22;31884;52.538;13.820;2022-10-16T06:18:35;13.70;99.90
44843;DHT22;31884;52.538;13.820;2022-10-16T06:21:11;13.70;99.90
44843;DHT22;31884;52.538;13.820;2022-10-16T06:23:37;13.80;99.90
44843;DHT22;31884;52.538;13.820;2022-10-16T06:26:10;14.00;99.90
44843;DHT22;31884;52.538;13.820;2022-10-16T06:28:36;14.00;99.90
44843;DHT22;31884;52.538;13.820;2022-10-16T06:31:03;14.10;99.90
44843;DHT22;31884;52.538;13.820;2022-10-16T06:33:29;14.10;99.90
44843;DHT22;31884;52.538;13.820;2022-10-16T06:36:07;14.20;99.90
44843;DHT22;31884;52.538;13.820;2022-10-16T06:38:33;14.20;99.90
44843;DHT22;31884;52.538;13.820;2022-10-16T06:40:59;14.30;99.90
44843;DHT22;31884;52.538;13.820;2022-10-16T06:43:25;14.30;99.90
44843;DHT22;31884;52.538;13.820;2022-10-16T06:45:53;14.30;99.90
44843;DHT22;31884;52.538;13.820;2022-10-16T06:48:19;14.50;99.90
44843;DHT22;31884;52.538;13.820;2022-10-16T06:50:44;14.60;99.90
44843;DHT22;31884;52.538;13.820;2022-10-16T06:53:09;14.70;99.90
44843;DHT22;31884;52.538;13.820;2022-10-16T06:55:35;14.80;99.90
44843;DHT22;31884;52.538;13.820;2022-10-16T06:58:00;15.00;99.90
44843;DHT22;31884;52.538;13.820;2022-10-16T07:00:26;15.10;99.90
44843;DHT22;31884;52.538;13.820;2022-10-16T07:02:51;15.20;99.90
44843;DHT22;31884;52.538;13.820;2022-10-16T07:05:17;15.30;99.90
44843;DHT22;31884;52.538;13.820;2022-10-16T07:07:42;15.30;99.90
44843;DHT22;31884;52.538;13.820;2022-10-16T07:10:08;15.40;99.90
44843;DHT22;31884;52.538;13.820;2022-10-16T07:12:33;15.40;99.90
44843;DHT22;31884;52.538;13.820;2022-10-16T07:14:59;15.50;99.90
44843;DHT22;31884;52.538;13.820;2022-10-16T07:17:24;15.60;99.90
44843;DHT22;31884;52.538;13.820;2022-10-16T07:19:50;15.60;99.90
44843;DHT22;31884;52.538;13.820;2022-10-16T07:22:18;15.70;99.90
44843;DHT22;31884;52.538;13.820;2022-10-16T07:24:43;15.80;99.90
44843;DHT22;31884;52.538;13.820;2022-10-16T07:27:09;15.90;99.90
44843;DHT22;31884;52.538;13.820;2022-10-16T07:29:35;16.00;99.90
44843;DHT22;31884;52.538;13.820;2022-10-16T07:32:01;16.20;99.90
44843;DHT22;31884;52.538;13.820;2022-10-16T07:34:27;16.30;99.90
44843;DHT22;31884;52.538;13.820;2022-10-16T07:36:52;16.30;99.90
44843;DHT22;31884;52.538;13.820;2022-10-16T07:39:18;16.40;99.90
44843;DHT22;31884;52.538;13.820;2022-10-16T07:41:43;16.60;99.90
44843;DHT22;31884;52.538;13.820;2022-10-16T07:44:09;16.70;99.90
44843;DHT22;31884;52.538;13.820;2022-10-16T07:46:35;16.90;99.90
44843;DHT22;31884;52.538;13.820;2022-10-16T07:49:02;17.10;99.90
44843;DHT22;31884;52.538;13.820;2022-10-16T07:51:27;17.20;99.90
44843;DHT22;31884;52.538;13.820;2022-10-16T07:53:53;17.20;99.90
44843;DHT22;31884;52.538;13.820;2022-10-16T07:56:20;17.50;99.90
44843;DHT22;31884;52.538;13.820;2022-10-16T07:58:46;17.90;99.90
44843;DHT22;31884;52.538;13.820;2022-10-16T08:01:13;18.20;99.90
44843;DHT22;31884;52.538;13.820;2022-10-16T08:03:47;18.40;99.90
44843;DHT22;31884;52.538;13.820;2022-10-16T08:06:13;18.50;99.90
44843;DHT22;31884;52.538;13.820;2022-10-16T08:08:39;18.50;99.90
44843;DHT22;31884;52.538;13.820;2022-10-16T08:11:05;18.50;99.90
44843;DHT22;31884;52.538;13.820;2022-10-16T08:13:31;18.50;99.90
44843;DHT22;31884;52.538;13.820;2022-10-16T08:15:57;18.40;99.90
44843;DHT22;31884;52.538;13.820;2022-10-16T08:18:22;18.30;99.90
44843;DHT22;31884;52.538;13.820;2022-10-16T08:20:54;18.30;99.90
44843;DHT22;31884;52.538;13.820;2022-10-16T08:23:20;18.20;99.90
44843;DHT22;31884;52.538;13.820;2022-10-16T08:25:45;18.20;99.90
44843;DHT22;31884;52.538;13.820;2022-10-16T08:28:11;18.20;99.90
44843;DHT22;31884;52.538;13.820;2022-10-16T08:30:37;18.20;99.90
44843;DHT22;31884;52.538;13.820;2022-10-16T08:33:03;18.20;99.90
44843;DHT22;31884;52.538;13.820;2022-10-16T08:35:29;18.20;99.90
44843;DHT22;31884;52.538;13.820;2022-10-16T08:37:54;18.30;99.90
44843;DHT22;31884;52.538;13.820;2022-10-16T08:40:24;18.40;99.90
44843;DHT22;31884;52.538;13.820;2022-10-16T08:48:43;18.60;99.90
44843;DHT22;31884;52.538;13.820;2022-10-16T08:51:11;18.70;99.90
44843;DHT22;31884;52.538;13.820;2022-10-16T08:53:51;18.80;99.90
44843;DHT22;31884;52.538;13.820;2022-10-16T08:56:18;18.80;99.90
44843;DHT22;31884;52.538;13.820;2022-10-16T08:58:45;18.80;99.90
44843;DHT22;31884;52.538;13.820;2022-10-16T09:01:14;18.90;99.90
44843;DHT22;31884;52.538;13.820;2022-10-16T09:09:07;18.80;99.90
44843;DHT22;31884;52.538;13.820;2022-10-16T09:12:04;18.80;99.90
44843;DHT22;31884;52.538;13.820;2022-10-16T09:23:10;18.80;99.90
44843;DHT22;31884;52.538;13.820;2022-10-16T09:25:39;18.90;99.90
44843;DHT22;31884;52.538;13.820;2022-10-16T09:28:07;19.10;99.90
44843;DHT22;31884;52.538;13.820;2022-10-16T09:30:33;19.20;99.90
44843;DHT22;31884;52.538;13.820;2022-10-16T09:32:59;19.40;99.90
44843;DHT22;31884;52.538;13.820;2022-10-16T09:35:32;19.60;99.90
44843;DHT22;31884;52.538;13.820;2022-10-16T09:38:00;19.90;99.90
44843;DHT22;31884;52.538;13.820;2022-10-16T09:45:40;20.60;99.40
44843;DHT22;31884;52.538;13.820;2022-10-16T09:48:13;20.70;99.90
44843;DHT22;31884;52.538;13.820;2022-10-16T09:50:38;20.60;99.90
44843;DHT22;31884;52.538;13.820;2022-10-16T09:53:07;20.60;99.60
44843;DHT22;31884;52.538;13.820;2022-10-16T09:55:33;20.50;99.30
44843;DHT22;31884;52.538;13.820;2022-10-16T09:57:59;20.60;99.90
44843;DHT22;31884;52.538;13.820;2022-10-16T10:00:25;20.80;99.90
44843;DHT22;31884;52.538;13.820;2022-10-16T10:02:51;20.90;96.70
44843;DHT22;31884;52.538;13.820;2022-10-16T10:07:44;21.00;97.20
44843;DHT22;31884;52.538;13.820;2022-10-16T10:10:27;21.00;95.70
44843;DHT22;31884;52.538;13.820;2022-10-16T10:12:54;21.00;95.90
44843;DHT22;31884;52.538;13.820;2022-10-16T10:15:21;20.80;95.20
44843;DHT22;31884;52.538;13.820;2022-10-16T10:17:52;20.70;93.30
44843;DHT22;31884;52.538;13.820;2022-10-16T10:20:24;20.60;94.10
44843;DHT22;31884;52.538;13.820;2022-10-16T10:22:50;20.50;94.40
44843;DHT22;31884;52.538;13.820;2022-10-16T10:25:26;20.50;93.30
44843;DHT22;31884;52.538;13.820;2022-10-16T10:33:54;20.70;92.70
44843;DHT22;31884;52.538;13.820;2022-10-16T10:39:08;20.90;94.10
44843;DHT22;31884;52.538;13.820;2022-10-16T10:47:24;20.80;87.90
44843;DHT22;31884;52.538;13.820;2022-10-16T10:50:06;20.80;88.50
44843;DHT22;31884;52.538;13.820;2022-10-16T10:52:41;20.70;90.60
44843;DHT22;31884;52.538;13.820;2022-10-16T10:55:16;20.80;91.70
44843;DHT22;31884;52.538;13.820;2022-10-16T11:06:29;21.20;84.90
44843;DHT22;31884;52.538;13.820;2022-10-16T11:09:08;21.30;85.80
44843;DHT22;31884;52.538;13.820;2022-10-16T11:11:40;21.20;83.10
44843;DHT22;31884;52.538;13.820;2022-10-16T11:16:44;21.20;85.70
44843;DHT22;31884;52.538;13.820;2022-10-16T11:22:05;21.20;81.70
44843;DHT22;31884;52.538;13.820;2022-10-16T11:25:02;21.20;85.10
44843;DHT22;31884;52.538;13.820;2022-10-16T11:27:39;21.30;79.10
44843;DHT22;31884;52.538;13.820;2022-10-16T11:30:14;21.40;79.00
44843;DHT22;31884;52.538;13.820;2022-10-16T11:33:12;21.50;77.70
44843;DHT22;31884;52.538;13.820;2022-10-16T11:36:00;21.50;78.10
44843;DHT22;31884;52.538;13.820;2022-10-16T11:38:43;21.60;82.00
44843;DHT22;31884;52.538;13.820;2022-10-16T11:44:06;21.60;66.20
44843;DHT22;31884;52.538;13.820;2022-10-16T11:46:38;21.50;65.90
44843;DHT22;31884;52.538;13.820;2022-10-16T11:49:10;21.50;71.70
44843;DHT22;31884;52.538;13.820;2022-10-16T11:51:40;21.40;69.80
44843;DHT22;31884;52.538;13.820;2022-10-16T11:54:37;21.30;71.90
44843;DHT22;31884;52.538;13.820;2022-10-16T11:57:13;21.20;64.50
44843;DHT22;31884;52.538;13.820;2022-10-16T12:02:26;21.10;67.60
44843;DHT22;31884;52.538;13.820;2022-10-16T12:05:09;20.90;72.50
44843;DHT22;31884;52.538;13.820;2022-10-16T12:07:41;20.90;67.40
44843;DHT22;31884;52.538;13.820;2022-10-16T12:10:24;20.90;71.90
44843;DHT22;31884;52.538;13.820;2022-10-16T12:12:51;20.80;68.70
44843;DHT22;31884;52.538;13.820;2022-10-16T12:15:28;20.70;70.90
44843;DHT22;31884;52.538;13.820;2022-10-16T12:17:55;20.60;69.50
44843;DHT22;31884;52.538;13.820;2022-10-16T12:22:55;20.50;72.30
44843;DHT22;31884;52.538;13.820;2022-10-16T12:25:25;20.50;72.70
44843;DHT22;31884;52.538;13.820;2022-10-16T12:30:28;20.50;72.10
44843;DHT22;31884;52.538;13.820;2022-10-16T12:32:56;20.30;72.40
44843;DHT22;31884;52.538;13.820;2022-10-16T12:35:27;20.30;73.00
44843;DHT22;31884;52.538;13.820;2022-10-16T12:37:53;20.30;73.60
44843;DHT22;31884;52.538;13.820;2022-10-16T12:40:32;20.20;73.50
44843;DHT22;31884;52.538;13.820;2022-10-16T12:42:58;20.20;73.20
44843;DHT22;31884;52.538;13.820;2022-10-16T12:45:29;20.20;73.90
44843;DHT22;31884;52.538;13.820;2022-10-16T12:47:57;20.30;73.30
44843;DHT22;31884;52.538;13.820;2022-10-16T12:50:41;20.30;73.50
44843;DHT22;31884;52.538;13.820;2022-10-16T12:53:24;20.30;69.90
44843;DHT22;31884;52.538;13.820;2022-10-16T12:56:14;20.30;70.20
44843;DHT22;31884;52.538;13.820;2022-10-16T12:58:46;20.30;65.20
44843;DHT22;31884;52.538;13.820;2022-10-16T13:07:17;20.30;66.60
44843;DHT22;31884;52.538;13.820;2022-10-16T13:09:58;20.30;67.50
44843;DHT22;31884;52.538;13.820;2022-10-16T13:15:29;20.20;61.90
44843;DHT22;31884;52.538;13.820;2022-10-16T13:18:23;20.20;64.60
44843;DHT22;31884;52.538;13.820;2022-10-16T13:23:40;20.00;60.40
44843;DHT22;31884;52.538;13.820;2022-10-16T13:26:33;19.90;61.00
44843;DHT22;31884;52.538;13.820;2022-10-16T13:29:00;19.80;62.20
44843;DHT22;31884;52.538;13.820;2022-10-16T13:31:28;19.70;64.30
44843;DHT22;31884;52.538;13.820;2022-10-16T13:33:58;19.60;62.80
44843;DHT22;31884;52.538;13.820;2022-10-16T13:36:30;19.50;63.40
44843;DHT22;31884;52.538;13.820;2022-10-16T13:41:31;19.50;64.20
44843;DHT22;31884;52.538;13.820;2022-10-16T13:43:57;19.40;64.50
44843;DHT22;31884;52.538;13.820;2022-10-16T13:46:24;19.40;65.30
44843;DHT22;31884;52.538;13.820;2022-10-16T13:49:16;19.40;64.90
44843;DHT22;31884;52.538;13.820;2022-10-16T13:51:54;19.30;62.50
44843;DHT22;31884;52.538;13.820;2022-10-16T13:54:20;19.30;64.30
44843;DHT22;31884;52.538;13.820;2022-10-16T13:56:45;19.30;65.00
44843;DHT22;31884;52.538;13.820;2022-10-16T13:59:33;19.30;65.00
44843;DHT22;31884;52.538;13.820;2022-10-16T14:02:00;19.30;63.60
44843;DHT22;31884;52.538;13.820;2022-10-16T14:04:32;19.20;65.00
44843;DHT22;31884;52.538;13.820;2022-10-16T14:06:58;19.20;65.00
44843;DHT22;31884;52.538;13.820;2022-10-16T14:09:28;19.20;65.00
44843;DHT22;31884;52.538;13.820;2022-10-16T14:11:59;19.20;65.10
44843;DHT22;31884;52.538;13.820;2022-10-16T14:14:27;19.20;65.70
44843;DHT22;31884;52.538;13.820;2022-10-16T14:16:58;19.20;66.10
44843;DHT22;31884;52.538;13.820;2022-10-16T14:19:27;19.20;65.80
44843;DHT22;31884;52.538;13.820;2022-10-16T14:21:53;19.20;66.30
44843;DHT22;31884;52.538;13.820;2022-10-16T14:24:35;19.20;65.80
44843;DHT22;31884;52.538;13.820;2022-10-16T14:27:01;19.20;65.20
44843;DHT22;31884;52.538;13.820;2022-10-16T14:29:28;19.20;66.20
44843;DHT22;31884;52.538;13.820;2022-10-16T14:32:24;19.20;66.40
44843;DHT22;31884;52.538;13.820;2022-10-16T14:34:53;19.10;66.10
44843;DHT22;31884;52.538;13.820;2022-10-16T14:37:27;19.10;66.50
44843;DHT22;31884;52.538;13.820;2022-10-16T14:39:54;19.00;66.60
44843;DHT22;31884;52.538;13.820;2022-10-16T14:42:22;19.10;66.70
44843;DHT22;31884;52.538;13.820;2022-10-16T14:44:50;19.00;66.60
44843;DHT22;31884;52.538;13.820;2022-10-16T14:47:19;19.00;66.70
44843;DHT22;31884;52.538;13.820;2022-10-16T14:49:47;19.00;66.90
44843;DHT22;31884;52.538;13.820;2022-10-16T14:52:14;18.90;66.60
44843;DHT22;31884;52.538;13.820;2022-10-16T14:54:40;18.90;67.00
44843;DHT22;31884;52.538;13.820;2022-10-16T14:57:05;18.90;67.00
44843;DHT22;31884;52.538;13.820;2022-10-16T14:59:40;18.80;67.10
44843;DHT22;31884;52.538;13.820;2022-10-16T15:02:28;18.80;67.40
44843;DHT22;31884;52.538;13.820;2022-10-16T15:04:54;18.80;67.50
44843;DHT22;31884;52.538;13.820;2022-10-16T15:07:20;18.70;68.70
44843;DHT22;31884;52.538;13.820;2022-10-16T15:09:46;18.60;68.80
44843;DHT22;31884;52.538;13.820;2022-10-16T15:12:11;18.60;69.50
44843;DHT22;31884;52.538;13.820;2022-10-16T15:14:37;18.50;69.80
44843;DHT22;31884;52.538;13.820;2022-10-16T15:17:03;18.50;70.30
44843;DHT22;31884;52.538;13.820;2022-10-16T15:19:28;18.40;70.60
44843;DHT22;31884;52.538;13.820;2022-10-16T15:21:54;18.40;70.90
44843;DHT22;31884;52.538;13.820;2022-10-16T15:24:19;18.30;71.20
44843;DHT22;31884;52.538;13.820;2022-10-16T15:26:45;18.30;71.70
44843;DHT22;31884;52.538;13.820;2022-10-16T15:29:14;18.20;72.30
44843;DHT22;31884;52.538;13.820;2022-10-16T15:31:40;18.10;73.00
44843;DHT22;31884;52.538;13.820;2022-10-16T15:34:09;18.00;73.50
44843;DHT22;31884;52.538;13.820;2022-10-16T15:36:36;17.90;73.80
44843;DHT22;31884;52.538;13.820;2022-10-16T15:39:13;17.90;74.50
44843;DHT22;31884;52.538;13.820;2022-10-16T15:41:39;17.80;75.80
44843;DHT22;31884;52.538;13.820;2022-10-16T15:44:04;17.70;76.20
44843;DHT22;31884;52.538;13.820;2022-10-16T15:46:30;17.60;77.00
44843;DHT22;31884;52.538;13.820;2022-10-16T15:48:57;17.50;77.90
44843;DHT22;31884;52.538;13.820;2022-10-16T15:51:23;17.40;78.80
44843;DHT22;31884;52.538;13.820;2022-10-16T15:53:49;17.30;81.20
44843;DHT22;31884;52.538;13.820;2022-10-16T15:56:16;17.20;83.20
44843;DHT22;31884;52.538;13.820;2022-10-16T15:58:42;17.00;85.10
44843;DHT22;31884;52.538;13.820;2022-10-16T16:01:08;16.90;86.80
44843;DHT22;31884;52.538;13.820;2022-10-16T16:03:36;16.70;88.50
44843;DHT22;31884;52.538;13.820;2022-10-16T16:06:07;16.60;89.90
44843;DHT22;31884;52.538;13.820;2022-10-16T16:08:33;16.50;90.80
44843;DHT22;31884;52.538;13.820;2022-10-16T16:11:01;16.30;91.10
44843;DHT22;31884;52.538;13.820;2022-10-16T16:13:27;16.20;91.40
44843;DHT22;31884;52.538;13.820;2022-10-16T16:15:53;16.10;92.10
44843;DHT22;31884;52.538;13.820;2022-10-16T16:18:18;16.00;92.70
44843;DHT22;31884;52.538;13.820;2022-10-16T16:20:44;15.90;93.30
44843;DHT22;31884;52.538;13.820;2022-10-16T16:23:09;15.80;93.80
44843;DHT22;31884;52.538;13.820;2022-10-16T16:25:35;15.60;94.50
44843;DHT22;31884;52.538;13.820;2022-10-16T16:28:01;15.50;95.20
44843;DHT22;31884;52.538;13.820;2022-10-16T16:30:26;15.40;95.70
44843;DHT22;31884;52.538;13.820;2022-10-16T16:32:52;15.30;96.20
44843;DHT22;31884;52.538;13.820;2022-10-16T16:35:17;15.20;96.80
44843;DHT22;31884;52.538;13.820;2022-10-16T16:37:43;15.10;97.30
44843;DHT22;31884;52.538;13.820;2022-10-16T16:40:08;15.00;98.10
44843;DHT22;31884;52.538;13.820;2022-10-16T16:42:34;14.80;98.40
44843;DHT22;31884;52.538;13.820;2022-10-16T16:44:59;14.70;99.60
44843;DHT22;31884;52.538;13.820;2022-10-16T16:47:25;14.60;99.90
44843;DHT22;31884;52.538;13.820;2022-10-16T16:49:51;14.40;99.90
44843;DHT22;31884;52.538;13.820;2022-10-16T16:52:17;14.30;99.90
44843;DHT22;31884;52.538;13.820;2022-10-16T16:54:43;14.20;99.90
44843;DHT22;31884;52.538;13.820;2022-10-16T16:57:09;14.10;99.90